Terminal Aerodrome Forecast
Issued by NWS

Home | Current Version | Previous Version | Text Only | Print | Product List | Glossary On
Versions: 1 2 3 4 5 6 7 8 9 10 11 12 13
000
FTUS46 KLOX 062300
TAFBUR
TAF
KBUR 062340Z 0700/0724 03013G19KT P6SM SKC
     FM070200 01008KT P6SM SKC
     FM072100 15006KT P6SM SKC
     FM072200 19008G17KT P6SM SKC=

USA.gov is the U.S. government's official web portal to all federal, state and local government web resources and services.